createdAt,value
2019-06-08T00:00:13.219Z,11.03
2019-06-08T00:02:41.601Z,11.33
2019-06-08T00:05:10.432Z,11.50
2019-06-08T00:07:39.051Z,11.40
2019-06-08T00:10:08.310Z,11.40
2019-06-08T00:12:37.101Z,10.43
2019-06-08T00:15:07.627Z,10.73
2019-06-08T00:17:38.699Z,9.60
2019-06-08T00:20:07.384Z,9.30
2019-06-08T00:22:35.960Z,9.73
2019-06-08T00:25:05.620Z,9.83
2019-06-08T00:27:34.183Z,9.80
2019-06-08T00:30:04.077Z,9.60
2019-06-08T00:32:33.015Z,9.50
2019-06-08T00:35:01.600Z,9.83
2019-06-08T00:37:30.174Z,8.53
2019-06-08T00:39:58.754Z,8.07
2019-06-08T00:42:27.801Z,6.90
2019-06-08T00:44:56.380Z,5.20
2019-06-08T00:47:24.947Z,5.07
2019-06-08T00:49:53.512Z,5.20
2019-06-08T00:52:23.180Z,4.53
2019-06-08T00:54:51.994Z,4.10
2019-06-08T00:57:39.896Z,3.53
2019-06-08T01:00:11.346Z,2.70
2019-06-08T01:02:40.247Z,2.37
2019-06-08T01:05:09.838Z,1.60
2019-06-08T01:07:38.419Z,1.60
2019-06-08T01:10:08.133Z,1.70
2019-06-08T01:12:36.913Z,1.50
2019-06-08T01:15:07.388Z,1.20
2019-06-08T01:17:35.966Z,1.30
2019-06-08T01:20:06.771Z,1.40
2019-06-08T01:22:35.381Z,1.40
2019-06-08T01:25:04.708Z,1.43
2019-06-08T01:27:33.295Z,1.33
2019-06-08T01:30:01.848Z,1.20
2019-06-08T01:32:30.583Z,1.10
2019-06-08T01:34:59.270Z,1.27
2019-06-08T01:37:29.067Z,1.10
2019-06-08T01:39:57.723Z,1.13
2019-06-08T01:42:27.602Z,1.20
2019-06-08T01:44:56.374Z,1.37
2019-06-08T01:47:26.117Z,1.13
2019-06-08T01:49:54.729Z,0.93
2019-06-08T01:52:24.405Z,0.83
2019-06-08T01:54:53.447Z,1.20
2019-06-08T01:57:23.065Z,1.20
2019-06-08T01:59:51.831Z,0.90
2019-06-08T02:02:20.425Z,0.90
2019-06-08T02:04:49.038Z,1.17
2019-06-08T02:07:17.611Z,0.90
2019-06-08T02:09:46.179Z,0.90
2019-06-08T02:12:14.762Z,1.03
2019-06-08T02:14:43.327Z,0.97
2019-06-08T02:17:11.900Z,1.00
2019-06-08T02:19:40.459Z,0.90
2019-06-08T02:22:09.467Z,0.80
2019-06-08T02:24:38.032Z,0.80
2019-06-08T02:27:06.589Z,0.80
2019-06-08T02:29:35.790Z,0.70
2019-06-08T02:32:04.520Z,0.80
2019-06-08T02:34:35.037Z,1.13
2019-06-08T02:37:03.282Z,0.67
2019-06-08T02:39:32.723Z,0.90
2019-06-08T02:42:01.346Z,0.80
2019-06-08T02:44:30.248Z,0.80
2019-06-08T02:46:58.938Z,0.97
2019-06-08T02:49:29.009Z,0.90
2019-06-08T02:51:57.713Z,0.80
2019-06-08T02:54:26.347Z,0.90
2019-06-08T02:56:55.833Z,0.83
2019-06-08T02:59:29.070Z,1.10
2019-06-08T03:01:59.914Z,1.07
2019-06-08T03:04:32.388Z,0.90
2019-06-08T03:07:03.672Z,1.03
2019-06-08T03:09:34.755Z,0.90
2019-06-08T03:12:06.283Z,1.20
2019-06-08T03:14:35.546Z,0.90
2019-06-08T03:17:04.641Z,0.80
2019-06-08T03:19:33.455Z,1.00
2019-06-08T03:22:02.084Z,1.10
2019-06-08T03:24:32.257Z,0.93
2019-06-08T03:27:00.863Z,0.97
2019-06-08T03:29:29.427Z,1.07
2019-06-08T03:31:58.023Z,1.10
2019-06-08T03:34:26.570Z,0.87
2019-06-08T03:36:57.032Z,0.93
2019-06-08T03:39:25.326Z,1.07
2019-06-08T03:41:53.878Z,0.97
2019-06-08T03:44:22.485Z,1.20
2019-06-08T03:46:51.064Z,1.10
2019-06-08T03:49:39.994Z,0.80
2019-06-08T03:51:49.819Z,0.97
2019-06-08T03:54:18.377Z,1.03
2019-06-08T03:56:46.948Z,0.93
2019-06-08T03:59:15.510Z,0.80
2019-06-08T04:01:45.993Z,1.00
2019-06-08T04:04:14.290Z,1.07
2019-06-08T04:06:43.698Z,1.20
2019-06-08T04:09:12.428Z,1.00
2019-06-08T04:11:42.445Z,1.17
2019-06-08T04:14:11.195Z,0.90
2019-06-08T04:16:40.154Z,0.83
2019-06-08T04:19:09.113Z,1.00
2019-06-08T04:21:37.972Z,0.90
2019-06-08T04:24:06.678Z,1.07
2019-06-08T04:26:35.237Z,1.00
2019-06-08T04:29:03.819Z,0.87
2019-06-08T04:31:32.385Z,0.90
2019-06-08T04:34:00.993Z,1.00
2019-06-08T04:36:29.567Z,1.00
2019-06-08T04:38:58.145Z,1.00
2019-06-08T04:41:26.700Z,1.00
2019-06-08T04:43:55.284Z,1.20
2019-06-08T04:46:23.834Z,0.90
2019-06-08T04:48:52.416Z,1.00
2019-06-08T04:51:20.964Z,1.07
2019-06-08T04:53:49.807Z,0.90
2019-06-08T04:56:18.498Z,0.90
2019-06-08T04:58:48.962Z,0.90
2019-06-08T05:01:17.271Z,1.00
2019-06-08T05:03:47.598Z,0.63
2019-06-08T05:06:16.181Z,1.00
2019-06-08T05:08:45.277Z,0.90
2019-06-08T05:11:13.914Z,0.93
2019-06-08T05:13:43.344Z,1.00
2019-06-08T05:16:12.051Z,0.90
2019-06-08T05:18:41.233Z,0.70
2019-06-08T05:21:09.962Z,0.80
2019-06-08T05:23:39.268Z,0.70
2019-06-08T05:26:07.901Z,0.70
2019-06-08T05:28:36.445Z,0.87
2019-06-08T05:31:05.088Z,0.60
2019-06-08T05:33:33.649Z,0.60
2019-06-08T05:36:02.249Z,0.73
2019-06-08T05:38:30.809Z,0.90
2019-06-08T05:40:59.367Z,0.60
2019-06-08T05:43:27.942Z,0.60
2019-06-08T05:45:56.499Z,0.60
2019-06-08T05:48:25.071Z,0.60
2019-06-08T05:51:03.052Z,0.70
2019-06-08T05:53:23.846Z,0.70
2019-06-08T05:55:52.351Z,0.60
2019-06-08T05:58:20.909Z,0.67
2019-06-08T06:00:50.683Z,0.53
2019-06-08T06:03:19.361Z,0.73
2019-06-08T06:05:48.532Z,0.73
2019-06-08T06:08:19.115Z,0.50
2019-06-08T06:10:48.847Z,0.50
2019-06-08T06:13:17.490Z,0.80
2019-06-08T06:15:47.213Z,0.80
2019-06-08T06:18:15.825Z,0.50
2019-06-08T06:20:45.382Z,0.50
2019-06-08T06:23:13.990Z,0.60
2019-06-08T06:25:43.383Z,0.60
2019-06-08T06:28:12.024Z,0.67
2019-06-08T06:30:41.531Z,0.50
2019-06-08T06:33:10.168Z,0.77
2019-06-08T06:35:38.709Z,0.77
2019-06-08T06:38:07.355Z,0.50
2019-06-08T06:40:35.909Z,0.67
2019-06-08T06:43:04.567Z,0.70
2019-06-08T06:45:33.041Z,0.80
2019-06-08T06:48:01.539Z,0.70
2019-06-08T06:50:30.040Z,0.50
2019-06-08T06:52:58.581Z,0.60
2019-06-08T06:55:27.066Z,0.60
2019-06-08T06:57:55.642Z,0.77
2019-06-08T07:00:31.670Z,0.50
2019-06-08T07:03:01.609Z,0.60
2019-06-08T07:05:30.183Z,0.53
2019-06-08T07:07:58.844Z,0.53
2019-06-08T07:10:27.411Z,0.60
2019-06-08T07:12:56.026Z,0.70
2019-06-08T07:15:28.749Z,0.50
2019-06-08T07:17:58.532Z,0.87
2019-06-08T07:20:27.457Z,0.70
2019-06-08T07:22:55.995Z,0.53
2019-06-08T07:25:24.515Z,0.80
2019-06-08T07:27:53.072Z,0.50
2019-06-08T07:30:22.126Z,0.80
2019-06-08T07:32:50.932Z,0.70
2019-06-08T07:35:19.635Z,1.00
2019-06-08T07:37:48.943Z,0.73
2019-06-08T07:40:18.473Z,0.83
2019-06-08T07:42:47.646Z,0.50
2019-06-08T07:45:17.350Z,0.60
2019-06-08T07:47:45.913Z,0.57
2019-06-08T07:50:14.639Z,0.67
2019-06-08T07:52:43.526Z,0.70
2019-06-08T07:55:12.719Z,0.70
2019-06-08T07:57:41.353Z,0.73
2019-06-08T08:00:10.400Z,0.57
2019-06-08T08:02:39.021Z,1.00
2019-06-08T08:05:07.901Z,0.60
2019-06-08T08:07:36.631Z,0.63
2019-06-08T08:10:07.285Z,0.70
2019-06-08T08:12:35.813Z,0.60
2019-06-08T08:15:06.037Z,0.60
2019-06-08T08:17:34.572Z,0.60
2019-06-08T08:20:04.803Z,0.63
2019-06-08T08:22:33.385Z,0.60
2019-06-08T08:25:04.742Z,0.63
2019-06-08T08:27:32.196Z,0.70
2019-06-08T08:30:02.102Z,0.60
2019-06-08T08:32:30.883Z,0.90
2019-06-08T08:35:02.702Z,0.67
2019-06-08T08:37:29.588Z,0.77
2019-06-08T08:40:00.286Z,0.90
2019-06-08T08:42:30.179Z,0.70
2019-06-08T08:45:04.537Z,0.80
2019-06-08T08:47:30.805Z,0.70
2019-06-08T08:50:01.853Z,0.70
2019-06-08T08:52:36.812Z,0.60
2019-06-08T08:55:00.915Z,0.90
2019-06-08T08:57:29.990Z,0.90
2019-06-08T09:00:03.403Z,0.60
2019-06-08T09:02:28.776Z,0.80
2019-06-08T09:05:00.304Z,0.70
2019-06-08T09:07:27.705Z,0.80
2019-06-08T09:09:59.791Z,0.73
2019-06-08T09:12:27.712Z,0.70
2019-06-08T09:14:58.887Z,0.87
2019-06-08T09:17:27.978Z,0.70
2019-06-08T09:19:58.900Z,0.80
2019-06-08T09:22:28.176Z,0.63
2019-06-08T09:25:01.295Z,0.90
2019-06-08T09:27:28.067Z,0.60
2019-06-08T09:29:59.679Z,0.80
2019-06-08T09:32:28.190Z,1.30
2019-06-08T09:34:59.559Z,0.90
2019-06-08T09:37:28.790Z,0.80
2019-06-08T09:39:58.977Z,0.97
2019-06-08T09:42:28.466Z,0.90
2019-06-08T09:45:00.368Z,1.00
2019-06-08T09:47:28.030Z,0.90
2019-06-08T09:50:00.574Z,1.00
2019-06-08T09:52:28.163Z,0.77
2019-06-08T09:55:00.287Z,1.03
2019-06-08T09:57:28.415Z,1.00
2019-06-08T09:59:59.834Z,0.90
2019-06-08T10:02:28.355Z,0.90
2019-06-08T10:05:00.546Z,0.83
2019-06-08T10:07:31.057Z,0.80
2019-06-08T10:10:00.303Z,1.00
2019-06-08T10:12:28.202Z,1.00
2019-06-08T10:14:58.675Z,0.80
2019-06-08T10:17:27.889Z,1.00
2019-06-08T10:20:00.238Z,1.10
2019-06-08T10:22:28.299Z,0.80
2019-06-08T10:24:58.058Z,1.00
2019-06-08T10:27:28.363Z,1.03
2019-06-08T10:30:00.019Z,0.90
2019-06-08T10:32:28.211Z,0.97
2019-06-08T10:35:00.031Z,1.00
2019-06-08T10:37:28.377Z,0.83
2019-06-08T10:40:01.589Z,1.00
2019-06-08T10:42:27.563Z,1.13
2019-06-08T10:45:02.381Z,1.20
2019-06-08T10:47:29.559Z,0.80
2019-06-08T10:49:59.558Z,1.10
2019-06-08T10:52:28.148Z,1.17
2019-06-08T10:54:59.778Z,1.00
2019-06-08T10:57:28.014Z,1.00
2019-06-08T10:59:57.935Z,1.10
2019-06-08T11:02:28.102Z,0.93
2019-06-08T11:04:58.781Z,1.10
2019-06-08T11:07:27.985Z,1.10
2019-06-08T11:09:58.661Z,1.00
2019-06-08T11:12:28.322Z,1.10
2019-06-08T11:14:58.379Z,1.03
2019-06-08T11:17:27.944Z,1.20
2019-06-08T11:19:59.393Z,0.90
2019-06-08T11:22:27.864Z,1.27
2019-06-08T11:24:58.851Z,0.90
2019-06-08T11:27:28.469Z,1.67
2019-06-08T11:29:57.632Z,1.10
2019-06-08T11:32:26.284Z,1.00
2019-06-08T11:34:54.948Z,1.03
2019-06-08T11:37:23.508Z,0.87
2019-06-08T11:39:52.177Z,0.80
2019-06-08T11:42:20.712Z,1.00
2019-06-08T11:44:51.277Z,1.00
2019-06-08T11:47:19.485Z,1.33
2019-06-08T11:49:49.982Z,1.32
2019-06-08T11:52:18.512Z,0.90
2019-06-08T11:54:48.044Z,1.65
2019-06-08T11:57:17.769Z,1.15
2019-06-08T11:59:48.911Z,1.12
2019-06-08T12:02:18.486Z,1.00
2019-06-08T12:04:47.152Z,1.20
2019-06-08T12:07:15.708Z,1.00
2019-06-08T12:09:44.200Z,1.02
2019-06-08T12:12:17.825Z,1.00
2019-06-08T12:14:42.973Z,0.85
2019-06-08T12:17:16.854Z,1.20
2019-06-08T12:19:41.827Z,0.95
2019-06-08T12:22:11.628Z,1.10
2019-06-08T12:24:42.391Z,1.10
2019-06-08T12:27:23.701Z,1.10
2019-06-08T12:29:41.076Z,1.05
2019-06-08T12:32:12.267Z,0.90
2019-06-08T12:34:40.027Z,1.00
2019-06-08T12:37:13.416Z,0.87
2019-06-08T12:39:38.904Z,1.00
2019-06-08T12:42:09.607Z,0.87
2019-06-08T12:44:38.311Z,0.90
2019-06-08T12:47:10.584Z,0.83
2019-06-08T12:49:40.076Z,0.80
2019-06-08T12:52:08.625Z,0.90
2019-06-08T12:54:37.849Z,0.97
2019-06-08T12:57:10.154Z,1.17
2019-06-08T12:59:38.516Z,1.00
2019-06-08T13:02:08.924Z,1.03
2019-06-08T13:04:38.371Z,0.80
2019-06-08T13:07:09.781Z,1.10
2019-06-08T13:09:38.120Z,1.03
2019-06-08T13:12:08.040Z,1.23
2019-06-08T13:14:38.509Z,0.90
2019-06-08T13:17:08.702Z,1.00
2019-06-08T13:19:38.576Z,1.10
2019-06-08T13:22:08.801Z,1.10
2019-06-08T13:24:37.817Z,1.00
2019-06-08T13:27:06.824Z,1.20
2019-06-08T13:29:35.551Z,0.87
2019-06-08T13:32:04.370Z,0.83
2019-06-08T13:34:32.925Z,1.00
2019-06-08T13:37:01.477Z,0.70
2019-06-08T13:39:30.033Z,0.93
2019-06-08T13:41:58.519Z,0.90
2019-06-08T13:44:27.819Z,1.00
2019-06-08T13:46:57.865Z,0.80
2019-06-08T13:49:29.735Z,1.40
2019-06-08T13:51:58.454Z,1.13
2019-06-08T13:54:28.532Z,1.40
2019-06-08T13:56:58.945Z,1.20
2019-06-08T13:59:30.773Z,1.37
2019-06-08T14:01:58.355Z,1.30
2019-06-08T14:04:27.217Z,1.20
2019-06-08T14:06:58.209Z,1.10
2019-06-08T14:09:28.457Z,3.90
2019-06-08T14:11:57.792Z,1.87
2019-06-08T14:14:28.856Z,1.27
2019-06-08T14:16:58.652Z,1.13
2019-06-08T14:19:29.691Z,0.93
2019-06-08T14:21:57.272Z,1.27
2019-06-08T14:24:29.931Z,1.30
2019-06-08T14:26:58.258Z,1.10
2019-06-08T14:29:28.680Z,1.10
2019-06-08T14:31:57.751Z,1.50
2019-06-08T14:34:29.089Z,1.10
2019-06-08T14:36:58.990Z,1.30
2019-06-08T14:39:29.617Z,1.00
2019-06-08T14:41:57.816Z,1.10
2019-06-08T14:44:31.324Z,0.93
2019-06-08T14:46:57.994Z,1.00
2019-06-08T14:49:30.706Z,1.57
2019-06-08T14:51:57.966Z,1.27
2019-06-08T14:54:32.792Z,1.40
2019-06-08T14:56:57.755Z,1.20
2019-06-08T14:59:29.570Z,1.27
2019-06-08T15:01:56.841Z,1.60
2019-06-08T15:04:28.457Z,1.30
2019-06-08T15:06:58.429Z,1.50
2019-06-08T15:09:26.109Z,1.10
2019-06-08T15:11:54.725Z,1.60
2019-06-08T15:14:23.722Z,1.47
2019-06-08T15:16:52.355Z,1.53
2019-06-08T15:19:22.129Z,1.40
2019-06-08T15:21:50.753Z,1.30
2019-06-08T15:24:20.529Z,1.20
2019-06-08T15:26:49.431Z,1.30
2019-06-08T15:29:18.180Z,1.47
2019-06-08T15:31:48.153Z,1.13
2019-06-08T15:34:17.784Z,1.23
2019-06-08T15:36:46.803Z,1.43
2019-06-08T15:39:17.705Z,1.20
2019-06-08T15:41:45.744Z,1.33
2019-06-08T15:44:14.508Z,1.60
2019-06-08T15:46:43.231Z,1.27
2019-06-08T15:49:11.975Z,1.20
2019-06-08T15:51:40.804Z,1.30
2019-06-08T15:54:09.516Z,1.33
2019-06-08T15:56:48.145Z,1.43
2019-06-08T15:59:09.262Z,1.30
2019-06-08T16:01:37.909Z,1.40
2019-06-08T16:04:06.578Z,1.30
2019-06-08T16:06:35.208Z,1.20
2019-06-08T16:09:05.521Z,1.40
2019-06-08T16:11:34.632Z,1.37
2019-06-08T16:14:03.217Z,1.40
2019-06-08T16:16:33.132Z,1.30
2019-06-08T16:19:02.010Z,1.20
2019-06-08T16:21:31.720Z,1.30
2019-06-08T16:24:00.389Z,1.30
2019-06-08T16:26:29.644Z,1.50
2019-06-08T16:28:58.565Z,1.20
2019-06-08T16:31:27.375Z,1.40
2019-06-08T16:33:56.123Z,1.40
2019-06-08T16:36:24.993Z,1.40
2019-06-08T16:38:53.846Z,1.50
2019-06-08T16:41:22.406Z,1.17
2019-06-08T16:43:51.034Z,1.53
2019-06-08T16:46:19.514Z,1.60
2019-06-08T16:48:48.080Z,1.53
2019-06-08T16:51:16.649Z,1.60
2019-06-08T16:53:45.226Z,1.30
2019-06-08T16:56:13.809Z,1.57
2019-06-08T16:58:42.387Z,1.37
2019-06-08T17:01:10.989Z,1.80
2019-06-08T17:03:39.476Z,1.90
2019-06-08T17:06:08.054Z,1.70
2019-06-08T17:08:39.190Z,1.53
2019-06-08T17:11:07.207Z,1.50
2019-06-08T17:13:36.158Z,1.47
2019-06-08T17:16:04.787Z,2.07
2019-06-08T17:18:34.193Z,2.07
2019-06-08T17:21:02.811Z,1.80
2019-06-08T17:23:32.416Z,1.57
2019-06-08T17:26:01.056Z,1.70
2019-06-08T17:28:30.662Z,1.97
2019-06-08T17:30:59.318Z,1.60
2019-06-08T17:33:27.833Z,2.00
2019-06-08T17:35:56.389Z,2.80
2019-06-08T17:38:24.974Z,2.17
2019-06-08T17:40:53.525Z,1.60
2019-06-08T17:43:22.378Z,2.50
2019-06-08T17:45:50.952Z,2.03
2019-06-08T17:48:19.515Z,2.23
2019-06-08T17:50:48.012Z,2.90
2019-06-08T17:53:16.580Z,3.80
2019-06-08T17:55:45.149Z,2.60
2019-06-08T17:58:13.702Z,2.43
2019-06-08T18:00:43.777Z,2.47
2019-06-08T18:03:12.329Z,2.07
2019-06-08T18:05:42.803Z,3.10
2019-06-08T18:08:11.183Z,2.70
2019-06-08T18:10:41.457Z,2.67
2019-06-08T18:13:09.995Z,2.63
2019-06-08T18:15:40.268Z,1.90
2019-06-08T18:18:08.873Z,1.77
2019-06-08T18:20:40.490Z,2.13
2019-06-08T18:23:08.232Z,3.70
2019-06-08T18:25:38.733Z,3.80
2019-06-08T18:28:13.189Z,2.77
2019-06-08T18:30:41.227Z,1.93
2019-06-08T18:33:07.919Z,3.33
2019-06-08T18:35:39.413Z,2.87
2019-06-08T18:38:07.575Z,2.43
2019-06-08T18:40:37.913Z,4.80
2019-06-08T18:43:07.591Z,4.03
2019-06-08T18:45:39.502Z,3.23
2019-06-08T18:48:07.139Z,1.97
2019-06-08T18:50:38.064Z,1.80
2019-06-08T18:53:07.124Z,1.77
2019-06-08T18:55:38.720Z,1.80
2019-06-08T18:58:17.611Z,2.33
2019-06-08T19:00:41.137Z,2.60
2019-06-08T19:03:08.813Z,3.10
2019-06-08T19:05:40.244Z,3.40
2019-06-08T19:08:09.919Z,3.10
2019-06-08T19:10:40.386Z,2.50
2019-06-08T19:13:09.127Z,2.50
2019-06-08T19:15:41.871Z,2.60
2019-06-08T19:18:08.841Z,2.50
2019-06-08T19:20:42.316Z,2.20
2019-06-08T19:23:08.980Z,2.47
2019-06-08T19:25:42.159Z,2.20
2019-06-08T19:28:08.309Z,2.70
2019-06-08T19:30:39.483Z,2.60
2019-06-08T19:33:07.510Z,3.00
2019-06-08T19:35:36.087Z,3.20
2019-06-08T19:38:07.237Z,4.90
2019-06-08T19:40:34.940Z,6.50
2019-06-08T19:43:03.560Z,7.73
2019-06-08T19:45:32.083Z,7.07
2019-06-08T19:48:00.647Z,7.30
2019-06-08T19:50:29.223Z,6.90
2019-06-08T19:52:58.160Z,12.80
2019-06-08T19:55:27.515Z,19.63
2019-06-08T19:57:57.502Z,19.57
2019-06-08T20:00:27.809Z,18.20
2019-06-08T20:02:59.063Z,13.70
2019-06-08T20:05:28.670Z,13.67
2019-06-08T20:07:57.666Z,10.83
2019-06-08T20:10:27.952Z,8.63
2019-06-08T20:12:57.991Z,7.63
2019-06-08T20:15:26.692Z,14.77
2019-06-08T20:17:57.301Z,12.57
2019-06-08T20:20:27.672Z,16.13
2019-06-08T20:22:58.353Z,10.20
2019-06-08T20:25:27.831Z,8.77
2019-06-08T20:27:58.471Z,7.80
2019-06-08T20:30:28.175Z,7.30
2019-06-08T20:32:57.577Z,7.00
2019-06-08T20:35:29.349Z,6.50
2019-06-08T20:37:58.071Z,8.30
2019-06-08T20:40:28.224Z,3.77
2019-06-08T20:42:57.775Z,4.10
2019-06-08T20:45:28.085Z,3.30
2019-06-08T20:48:00.787Z,3.40
2019-06-08T20:50:29.360Z,3.80
2019-06-08T20:52:57.921Z,3.87
2019-06-08T20:55:28.322Z,4.33
2019-06-08T20:57:57.493Z,3.93
2019-06-08T21:00:26.292Z,4.40
2019-06-08T21:02:57.930Z,4.00
2019-06-08T21:05:27.584Z,3.00
2019-06-08T21:07:58.153Z,3.03
2019-06-08T21:10:27.937Z,3.97
2019-06-08T21:12:58.087Z,4.20
2019-06-08T21:15:27.434Z,4.83
2019-06-08T21:17:56.233Z,4.70
2019-06-08T21:20:24.730Z,4.97
2019-06-08T21:22:53.967Z,6.00
2019-06-08T21:25:23.682Z,4.77
2019-06-08T21:27:52.610Z,5.50
2019-06-08T21:30:24.774Z,5.53
2019-06-08T21:32:54.506Z,6.63
2019-06-08T21:35:22.813Z,6.40
2019-06-08T21:37:53.405Z,5.57
2019-06-08T21:40:21.569Z,6.03
2019-06-08T21:42:52.142Z,5.40
2019-06-08T21:45:20.364Z,4.53
2019-06-08T21:47:51.390Z,4.50
2019-06-08T21:50:19.135Z,5.40
2019-06-08T21:52:50.193Z,5.03
2019-06-08T21:55:17.914Z,5.20
2019-06-08T21:57:49.517Z,5.43
2019-06-08T22:00:35.799Z,5.23
2019-06-08T22:02:51.785Z,5.30
2019-06-08T22:07:50.068Z,5.43
2019-06-08T22:10:18.786Z,5.60
2019-06-08T22:12:48.283Z,5.43
2019-06-08T22:15:18.259Z,5.43
2019-06-08T22:17:47.614Z,5.40
2019-06-08T22:20:18.483Z,5.93
2019-06-08T22:22:47.342Z,5.83
2019-06-08T22:25:17.543Z,5.70
2019-06-08T22:27:46.381Z,5.10
2019-06-08T22:30:32.404Z,5.33
2019-06-08T22:32:47.386Z,5.00
2019-06-08T22:35:15.950Z,5.63
2019-06-08T22:37:44.448Z,5.47
2019-06-08T22:40:13.191Z,5.40
2019-06-08T22:42:41.812Z,5.73
2019-06-08T22:45:10.845Z,5.43
2019-06-08T22:47:39.417Z,5.73
2019-06-08T22:50:08.285Z,5.17
2019-06-08T22:52:37.659Z,5.17
2019-06-08T22:55:10.533Z,4.57
2019-06-08T22:57:37.735Z,4.93
2019-06-08T23:00:16.719Z,5.20
2019-06-08T23:02:38.741Z,4.97
2019-06-08T23:05:09.057Z,4.90
2019-06-08T23:07:38.059Z,4.83
2019-06-08T23:10:10.083Z,4.90
2019-06-08T23:12:38.711Z,4.77
2019-06-08T23:15:09.101Z,4.97
2019-06-08T23:17:38.927Z,4.70
2019-06-08T23:20:08.860Z,4.73
2019-06-08T23:22:38.443Z,4.50
2019-06-08T23:25:09.266Z,4.97
2019-06-08T23:27:38.160Z,4.53
2019-06-08T23:30:10.126Z,4.77
2019-06-08T23:32:39.030Z,5.13
2019-06-08T23:35:09.549Z,4.53
2019-06-08T23:37:38.281Z,5.03
2019-06-08T23:40:07.813Z,4.57
2019-06-08T23:42:38.429Z,4.70
2019-06-08T23:45:10.371Z,5.00
2019-06-08T23:47:38.528Z,4.63
2019-06-08T23:50:10.934Z,4.63
2019-06-08T23:52:38.450Z,4.93
2019-06-08T23:55:10.538Z,4.93
2019-06-08T23:57:38.183Z,4.33
